Time;durP1;ratioP1;P1;durP2;ratioP2;P2;SDS_P1;SDS_P2;PMS_P1;PMS_P2;Temp;Humidity;BMP_temperature;BMP_pressure;BME280_temperature;BME280_humidity;BME280_pressure;Samples;Min_cycle;Max_cycle;Signal;HPM_P1;HPM_P2
2022/09/06 00:00:11;;;;;;;;;;;;;;;;;;1012267;29;19918;-87
2022/09/06 00:00:41;;;;;;;;;;;;;;;;;;1012537;29;20022;-87
2022/09/06 00:01:12;;;;;;;;;;;;;;;;;;1012385;29;19936;-87
2022/09/06 00:01:42;;;;;;;;;;;;;;;;;;1012439;29;19918;-87
2022/09/06 00:02:12;;;;;;;;;;;;;;;;;;1012362;29;19988;-87
2022/09/06 00:02:43;;;;;;;;;;;;;;;;;;1012553;29;19916;-87
2022/09/06 00:03:14;;;;;;;;;;;;;;;;;;1012536;29;19911;-87
2022/09/06 00:03:44;;;;;;;;;;;;;;;;;;1012643;29;19911;-87
2022/09/06 00:04:15;;;;;;;;;;;;;;;;;;1012421;29;20287;-87
2022/09/06 00:04:45;;;;;;;;;;;;;;;;;;1012497;29;19955;-87
2022/09/06 00:05:15;;;;;;;;;;;;;;;;;;1012333;29;19946;-87
2022/09/06 00:05:46;;;;;;;;;;;;;;;;;;1012469;29;19911;-87
2022/09/06 00:06:16;;;;;;;;;;;;;;;;;;1012368;29;19912;-87
2022/09/06 00:06:47;;;;;;;;;;;;;;;;;;1012504;29;19919;-87
2022/09/06 00:07:17;;;;;;;;;;;;;;;;;;1012425;29;19911;-87
2022/09/06 00:07:47;;;;;;;;;;;;;;;;;;1012448;29;19918;-86
2022/09/06 00:08:18;;;;;;;;;;;;;;;;;;1016142;29;19911;-86
2022/09/06 00:08:48;;;;;;;;;;;;;;;;;;1012522;29;19918;-86
2022/09/06 00:09:19;;;;;;;;;;;;;;;;;;1012519;29;20449;-86
2022/09/06 00:09:49;;;;;;;;;;;;;;;;;;1016391;29;19911;-86
2022/09/06 00:10:20;;;;;;;;;;;;;;;;;;1012332;29;19948;-86
2022/09/06 00:10:50;;;;;;;;;;;;;;;;;;1012475;29;19915;-86
2022/09/06 00:11:21;;;;;;;;;;;;;;;;;;1012427;29;20046;-86
2022/09/06 00:11:51;;;;;;;;;;;;;;;;;;1012500;29;19915;-86
2022/09/06 00:12:21;;;;;;;;;;;;;;;;;;1012390;29;20010;-86
2022/09/06 00:12:52;;;;;;;;;;;;;;;;;;1012523;29;20360;-86
2022/09/06 00:13:22;;;;;;;;;;;;;;;;;;1012346;29;19915;-86
2022/09/06 00:13:53;;;;;;;;;;;;;;;;;;1012418;29;19919;-86
2022/09/06 00:14:23;;;;;;;;;;;;;;;;;;1012382;29;19911;-86
2022/09/06 00:14:53;;;;;;;;;;;;;;;;;;1017007;29;19917;-86
2022/09/06 00:15:24;;;;;;;;;;;;;;;;;;1017098;29;19918;-86
2022/09/06 00:15:54;;;;;;;;;;;;;;;;;;1017075;29;19963;-86
2022/09/06 00:16:24;;;;;;;;;;;;;;;;;;1020848;29;19907;-87
2022/09/06 00:16:55;;;;;;;;;;;;;;;;;;1021089;29;19915;-87
2022/09/06 00:17:25;;;;;;;;;;;;;;;;;;1017059;29;20432;-87
2022/09/06 00:17:56;;;;;;;;;;;;;;;;;;1017065;29;20403;-87
2022/09/06 00:18:26;;;;;;;;;;;;;;;;;;1016811;29;20314;-87
2022/09/06 00:18:56;;;;;;;;;;;;;;;;;;1017234;29;19911;-87
2022/09/06 00:19:27;;;;;;;;;;;;;;;;;;1017057;29;19917;-87
2022/09/06 00:19:57;;;;;;;;;;;;;;;;;;1017139;29;19918;-87
2022/09/06 00:20:28;;;;;;;;;;;;;;;;;;1012987;29;19911;-87
2022/09/06 00:20:58;;;;;;;;;;;;;;;;;;1013193;29;19911;-87
2022/09/06 00:21:28;;;;;;;;;;;;;;;;;;1013096;29;19912;-87
2022/09/06 00:21:58;;;;;;;;;;;;;;;;;;1016995;29;19954;-87
2022/09/06 00:22:29;;;;;;;;;;;;;;;;;;1016906;29;20298;-86
2022/09/06 00:23:00;;;;;;;;;;;;;;;;;;1017055;29;20001;-86
2022/09/06 00:23:30;;;;;;;;;;;;;;;;;;1017232;29;20403;-86
2022/09/06 00:24:02;;;;;;;;;;;;;;;;;;1013257;29;20006;-86
2022/09/06 00:24:33;;;;;;;;;;;;;;;;;;1013158;29;20326;-87
2022/09/06 00:25:04;;;;;;;;;;;;;;;;;;1013204;29;19919;-87
2022/09/06 00:25:35;;;;;;;;;;;;;;;;;;1013574;29;19911;-87
2022/09/06 00:26:05;;;;;;;;;;;;;;;;;;1017092;29;19911;-87
2022/09/06 00:26:35;;;;;;;;;;;;;;;;;;1016800;29;19911;-87
2022/09/06 00:27:06;;;;;;;;;;;;;;;;;;1017044;29;19979;-87
2022/09/06 00:27:36;;;;;;;;;;;;;;;;;;1017002;29;19951;-87
2022/09/06 00:28:06;;;;;;;;;;;;;;;;;;1017211;29;19911;-87
2022/09/06 00:28:37;;;;;;;;;;;;;;;;;;1017051;29;19974;-87
2022/09/06 00:29:07;;;;;;;;;;;;;;;;;;1017228;29;20384;-87
2022/09/06 00:29:37;;;;;;;;;;;;;;;;;;1016974;29;19915;-87
2022/09/06 00:30:08;;;;;;;;;;;;;;;;;;1017026;29;19911;-87
2022/09/06 00:30:38;;;;;;;;;;;;;;;;;;1013053;29;19962;-87
2022/09/06 00:31:09;;;;;;;;;;;;;;;;;;1013269;29;19911;-87
2022/09/06 00:31:39;;;;;;;;;;;;;;;;;;1013122;29;19911;-87
2022/09/06 00:32:09;;;;;;;;;;;;;;;;;;1013173;29;20006;-87
2022/09/06 00:32:40;;;;;;;;;;;;;;;;;;1013215;29;19972;-87
2022/09/06 00:33:10;;;;;;;;;;;;;;;;;;1013136;29;20014;-86
2022/09/06 00:33:40;;;;;;;;;;;;;;;;;;1013138;29;20426;-86
2022/09/06 00:34:11;;;;;;;;;;;;;;;;;;1013035;29;20010;-86
2022/09/06 00:34:41;;;;;;;;;;;;;;;;;;1013141;29;19943;-86
2022/09/06 00:35:12;;;;;;;;;;;;;;;;;;1013227;29;19912;-86
2022/09/06 00:35:46;;;;;;;;;;;;;;;;;;1013299;29;19912;-86
2022/09/06 00:36:16;;;;;;;;;;;;;;;;;;1017401;29;20381;-86
2022/09/06 00:36:46;;;;;;;;;;;;;;;;;;1021018;29;19953;-86
2022/09/06 00:37:17;;;;;;;;;;;;;;;;;;1017028;29;19911;-86
2022/09/06 00:37:47;;;;;;;;;;;;;;;;;;1016977;29;20372;-86
2022/09/06 00:38:18;;;;;;;;;;;;;;;;;;1012994;29;19915;-86
2022/09/06 00:38:48;;;;;;;;;;;;;;;;;;1013120;29;19963;-86
2022/09/06 00:39:18;;;;;;;;;;;;;;;;;;1013072;29;20408;-86
2022/09/06 00:39:49;;;;;;;;;;;;;;;;;;1017117;29;20327;-86
2022/09/06 00:40:19;;;;;;;;;;;;;;;;;;1016804;29;19918;-86
2022/09/06 00:40:49;;;;;;;;;;;;;;;;;;1013238;29;19911;-86
2022/09/06 00:41:20;;;;;;;;;;;;;;;;;;1012980;29;19911;-86
2022/09/06 00:41:50;;;;;;;;;;;;;;;;;;1013168;29;19912;-86
2022/09/06 00:42:20;;;;;;;;;;;;;;;;;;1012914;29;19912;-86
2022/09/06 00:42:51;;;;;;;;;;;;;;;;;;1013220;29;20001;-86
2022/09/06 00:43:21;;;;;;;;;;;;;;;;;;1013010;29;20028;-86
2022/09/06 00:43:54;;;;;;;;;;;;;;;;;;1013399;29;20016;-86
2022/09/06 00:44:25;;;;;;;;;;;;;;;;;;1013034;29;20385;-86
2022/09/06 00:44:55;;;;;;;;;;;;;;;;;;1013546;29;19915;-86
2022/09/06 00:45:25;;;;;;;;;;;;;;;;;;1016978;29;19911;-86
2022/09/06 00:45:56;;;;;;;;;;;;;;;;;;1016998;29;20047;-86
2022/09/06 00:46:26;;;;;;;;;;;;;;;;;;1016814;29;19911;-86
2022/09/06 00:46:56;;;;;;;;;;;;;;;;;;1017053;29;20021;-86
2022/09/06 00:47:27;;;;;;;;;;;;;;;;;;1013069;29;19915;-86
2022/09/06 00:47:57;;;;;;;;;;;;;;;;;;1013196;29;19911;-86
2022/09/06 00:48:27;;;;;;;;;;;;;;;;;;1016863;29;19917;-86
2022/09/06 00:48:58;;;;;;;;;;;;;;;;;;1016927;29;19965;-86
2022/09/06 00:49:28;;;;;;;;;;;;;;;;;;1016911;29;19911;-86
2022/09/06 00:49:59;;;;;;;;;;;;;;;;;;1017006;29;20287;-86
2022/09/06 00:50:29;;;;;;;;;;;;;;;;;;1018108;29;19927;-86
2022/09/06 00:51:00;;;;;;;;;;;;;;;;;;1018365;29;19951;-86
2022/09/06 00:51:30;;;;;;;;;;;;;;;;;;1018357;29;19935;-86
2022/09/06 00:52:00;;;;;;;;;;;;;;;;;;1111317;23;19910;-73
2022/09/06 00:52:31;;;;;;;;;;;;;;;;;;1014195;29;20404;-75
2022/09/06 00:53:01;;;;;;;;;;;;;;;;;;1012488;29;19917;-75
2022/09/06 00:53:31;;;;;;;;;;;;;;;;;;1012558;29;19997;-75
2022/09/06 00:54:01;;;;;;;;;;;;;;;;;;1016392;29;19911;-75
2022/09/06 00:54:32;;;;;;;;;;;;;;;;;;1016243;29;19950;-76
2022/09/06 00:55:03;;;;;;;;;;;;;;;;;;1016708;29;19918;-76
2022/09/06 00:55:33;;;;;;;;;;;;;;;;;;1015586;29;20291;-75
2022/09/06 00:56:03;;;;;;;;;;;;;;;;;;1016241;29;19911;-76
2022/09/06 00:56:34;;;;;;;;;;;;;;;;;;1016194;29;20291;-75
2022/09/06 00:57:04;;;;;;;;;;;;;;;;;;1015065;29;19911;-76
2022/09/06 00:57:34;;;;;;;;;;;;;;;;;;1016363;29;19911;-75
2022/09/06 00:58:05;;;;;;;;;;;;;;;;;;1016039;29;19910;-75
2022/09/06 00:58:35;;;;;;;;;;;;;;;;;;1013384;29;19959;-75
2022/09/06 00:59:05;;;;;;;;;;;;;;;;;;1014368;29;19966;-76
2022/09/06 00:59:36;;;;;;;;;;;;;;;;;;1014473;29;19911;-76
2022/09/06 01:00:06;;;;;;;;;;;;;;;;;;1012362;29;19919;-76
2022/09/06 01:00:37;;;;;;;;;;;;;;;;;;1014272;29;19915;-76
2022/09/06 01:01:08;;;;;;;;;;;;;;;;;;1014810;29;19919;-76
2022/09/06 01:01:38;;;;;;;;;;;;;;;;;;1015513;29;20015;-76
2022/09/06 01:02:08;;;;;;;;;;;;;;;;;;1016226;29;20276;-76
2022/09/06 01:02:39;;;;;;;;;;;;;;;;;;1016294;29;19966;-76
2022/09/06 01:03:09;;;;;;;;;;;;;;;;;;1016037;29;19918;-76
2022/09/06 01:03:39;;;;;;;;;;;;;;;;;;1016335;29;20518;-76
2022/09/06 01:04:10;;;;;;;;;;;;;;;;;;1016338;29;19919;-75
2022/09/06 01:04:40;;;;;;;;;;;;;;;;;;1016336;29;20283;-75
2022/09/06 01:05:10;;;;;;;;;;;;;;;;;;1016130;29;20327;-75
2022/09/06 01:05:41;;;;;;;;;;;;;;;;;;1016072;29;19982;-75
2022/09/06 01:06:11;;;;;;;;;;;;;;;;;;1015585;29;19915;-75
2022/09/06 01:06:41;;;;;;;;;;;;;;;;;;1015356;29;19922;-75
2022/09/06 01:07:12;;;;;;;;;;;;;;;;;;1014796;29;20398;-75
2022/09/06 01:07:42;;;;;;;;;;;;;;;;;;1011424;29;20010;-76
2022/09/06 01:08:13;;;;;;;;;;;;;;;;;;1012468;29;20015;-76
2022/09/06 01:08:43;;;;;;;;;;;;;;;;;;1011562;29;19922;-75
2022/09/06 01:09:13;;;;;;;;;;;;;;;;;;1014317;29;20804;-75
2022/09/06 01:09:44;;;;;;;;;;;;;;;;;;1016192;29;20328;-75
2022/09/06 01:10:14;;;;;;;;;;;;;;;;;;1016100;29;19915;-75
2022/09/06 01:10:44;;;;;;;;;;;;;;;;;;1012139;29;19922;-76
2022/09/06 01:11:15;;;;;;;;;;;;;;;;;;1012119;29;19939;-76
2022/09/06 01:11:45;;;;;;;;;;;;;;;;;;1012177;29;20269;-76
2022/09/06 01:12:16;;;;;;;;;;;;;;;;;;1012416;29;20014;-75
2022/09/06 01:12:46;;;;;;;;;;;;;;;;;;1010332;29;19918;-75
2022/09/06 01:13:16;;;;;;;;;;;;;;;;;;1013858;29;19915;-76
2022/09/06 01:13:47;;;;;;;;;;;;;;;;;;1013746;29;19917;-75
2022/09/06 01:14:17;;;;;;;;;;;;;;;;;;1046269;23;19926;-73
2022/09/06 01:14:47;;;;;;;;;;;;;;;;;;1025864;28;19918;-73
2022/09/06 01:15:18;;;;;;;;;;;;;;;;;;1021690;29;20382;-72
2022/09/06 01:15:48;;;;;;;;;;;;;;;;;;1019967;29;19910;-73
2022/09/06 01:16:19;;;;;;;;;;;;;;;;;;1020059;29;19961;-72
2022/09/06 01:16:49;;;;;;;;;;;;;;;;;;1023875;28;19910;-72
2022/09/06 01:17:19;;;;;;;;;;;;;;;;;;1026035;28;19911;-72
2022/09/06 01:17:50;;;;;;;;;;;;;;;;;;1026396;28;19910;-72
2022/09/06 01:18:20;;;;;;;;;;;;;;;;;;1026227;28;19937;-73
2022/09/06 01:18:50;;;;;;;;;;;;;;;;;;1025948;28;19911;-72
2022/09/06 01:19:21;;;;;;;;;;;;;;;;;;1025139;28;19966;-72
2022/09/06 01:19:51;;;;;;;;;;;;;;;;;;1023893;28;19910;-73
2022/09/06 01:20:21;;;;;;;;;;;;;;;;;;1024587;28;19965;-72
2022/09/06 01:20:52;;;;;;;;;;;;;;;;;;1025362;28;19919;-72
2022/09/06 01:21:22;;;;;;;;;;;;;;;;;;1025939;28;19954;-73
2022/09/06 01:21:53;;;;;;;;;;;;;;;;;;1030250;28;19914;-73
2022/09/06 01:22:23;;;;;;;;;;;;;;;;;;1026030;28;19969;-73
2022/09/06 01:22:54;;;;;;;;;;;;;;;;;;1023033;28;19933;-73
2022/09/06 01:23:24;;;;;;;;;;;;;;;;;;1019381;29;19944;-72
2022/09/06 01:23:54;;;;;;;;;;;;;;;;;;1021033;29;19973;-72
2022/09/06 01:24:25;;;;;;;;;;;;;;;;;;1016137;29;19937;-72
2022/09/06 01:24:55;;;;;;;;;;;;;;;;;;1012912;29;19926;-72
2022/09/06 01:25:26;;;;;;;;;;;;;;;;;;1012225;29;19925;-72
2022/09/06 01:25:58;;;;;;;;;;;;;;;;;;1018787;29;19918;-73
2022/09/06 01:26:29;;;;;;;;;;;;;;;;;;1016438;29;19922;-73
2022/09/06 01:26:59;;;;;;;;;;;;;;;;;;1021550;29;20371;-73
2022/09/06 01:27:29;;;;;;;;;;;;;;;;;;1017265;29;19917;-73
2022/09/06 01:28:00;;;;;;;;;;;;;;;;;;1021592;29;19915;-72
2022/09/06 01:28:31;;;;;;;;;;;;;;;;;;1018736;29;20235;-72
2022/09/06 01:29:01;;;;;;;;;;;;;;;;;;1019344;29;19914;-72
2022/09/06 01:29:31;;;;;;;;;;;;;;;;;;1022809;28;20363;-75
2022/09/06 01:30:02;;;;;;;;;;;;;;;;;;1022703;28;19920;-75
2022/09/06 01:30:33;;;;;;;;;;;;;;;;;;1023966;28;19918;-75
2022/09/06 01:31:03;;;;;;;;;;;;;;;;;;1018657;28;19922;-75
2022/09/06 01:31:35;;;;;;;;;;;;;;;;;;1037565;23;19932;-73
2022/09/06 01:32:05;;;;;;;;;;;;;;;;;;1012585;28;20456;-73
2022/09/06 01:32:36;;;;;;;;;;;;;;;;;;1012932;28;20616;-73
2022/09/06 01:33:06;;;;;;;;;;;;;;;;;;1012308;28;19981;-73
2022/09/06 01:33:36;;;;;;;;;;;;;;;;;;1013977;28;19994;-73
2022/09/06 01:34:06;;;;;;;;;;;;;;;;;;1013039;28;20215;-73
2022/09/06 01:34:37;;;;;;;;;;;;;;;;;;1010260;29;20360;-73
2022/09/06 01:35:07;;;;;;;;;;;;;;;;;;1009444;28;20082;-73
2022/09/06 01:35:37;;;;;;;;;;;;;;;;;;1010527;28;20480;-72
2022/09/06 01:36:08;;;;;;;;;;;;;;;;;;1013438;28;19921;-73
2022/09/06 01:36:38;;;;;;;;;;;;;;;;;;1016227;28;20649;-73
2022/09/06 01:37:09;;;;;;;;;;;;;;;;;;1010625;28;20408;-74
2022/09/06 01:37:39;;;;;;;;;;;;;;;;;;1008445;28;20439;-74
2022/09/06 01:38:09;;;;;;;;;;;;;;;;;;1010173;28;19929;-74
2022/09/06 01:38:40;;;;;;;;;;;;;;;;;;1008351;28;20118;-74
2022/09/06 01:39:10;;;;;;;;;;;;;;;;;;1010294;28;19910;-74
2022/09/06 01:39:40;;;;;;;;;;;;;;;;;;1009472;28;20228;-74
2022/09/06 01:40:12;;;;;;;;;;;;;;;;;;1007297;29;19918;-74
2022/09/06 01:40:43;;;;;;;;;;;;;;;;;;1010983;28;20857;-74
2022/09/06 01:41:13;;;;;;;;;;;;;;;;;;1012516;28;20580;-73
2022/09/06 01:41:45;;;;;;;;;;;;;;;;;;1013168;28;20223;-73
2022/09/06 01:42:16;;;;;;;;;;;;;;;;;;1006857;29;20402;-74
2022/09/06 01:42:46;;;;;;;;;;;;;;;;;;1006342;29;20446;-74
2022/09/06 01:43:17;;;;;;;;;;;;;;;;;;1008583;29;20020;-74
2022/09/06 01:43:48;;;;;;;;;;;;;;;;;;1011786;28;19910;-73
2022/09/06 01:44:19;;;;;;;;;;;;;;;;;;1011071;28;19910;-73
2022/09/06 01:44:49;;;;;;;;;;;;;;;;;;1008144;28;20321;-74
2022/09/06 01:45:22;;;;;;;;;;;;;;;;;;1002124;29;20257;-74
2022/09/06 01:45:53;;;;;;;;;;;;;;;;;;1004973;29;20414;-74
2022/09/06 01:46:23;;;;;;;;;;;;;;;;;;1008715;28;20077;-74
2022/09/06 01:46:54;;;;;;;;;;;;;;;;;;1007273;28;20318;-74
2022/09/06 01:47:25;;;;;;;;;;;;;;;;;;1009660;28;20386;-73
2022/09/06 01:47:55;;;;;;;;;;;;;;;;;;1009225;28;19910;-75
2022/09/06 01:48:26;;;;;;;;;;;;;;;;;;1008188;29;20852;-73
2022/09/06 01:48:56;;;;;;;;;;;;;;;;;;1011257;28;19914;-74
2022/09/06 01:49:27;;;;;;;;;;;;;;;;;;1011571;28;20260;-74
2022/09/06 01:49:57;;;;;;;;;;;;;;;;;;1008185;28;19962;-74
2022/09/06 01:50:28;;;;;;;;;;;;;;;;;;1004932;29;20227;-74
2022/09/06 01:50:59;;;;;;;;;;;;;;;;;;1009543;28;20120;-74
2022/09/06 01:51:29;;;;;;;;;;;;;;;;;;1009245;29;20283;-74
2022/09/06 01:52:00;;;;;;;;;;;;;;;;;;1011281;28;20360;-74
2022/09/06 01:52:30;;;;;;;;;;;;;;;;;;1006890;29;20357;-74
2022/09/06 01:53:00;;;;;;;;;;;;;;;;;;1006666;29;19985;-74
2022/09/06 01:53:31;;;;;;;;;;;;;;;;;;1006668;29;20788;-74
2022/09/06 01:54:01;;;;;;;;;;;;;;;;;;1001944;28;20337;-74
2022/09/06 01:54:32;;;;;;;;;;;;;;;;;;1014999;28;20460;-74
2022/09/06 01:55:02;;;;;;;;;;;;;;;;;;1015126;28;20477;-74
2022/09/06 01:55:32;;;;;;;;;;;;;;;;;;1015056;28;19921;-74
2022/09/06 01:56:02;;;;;;;;;;;;;;;;;;1014759;28;19910;-74
2022/09/06 01:56:33;;;;;;;;;;;;;;;;;;1017539;28;19914;-74
2022/09/06 01:57:04;;;;;;;;;;;;;;;;;;1014836;28;19914;-73
2022/09/06 01:57:35;;;;;;;;;;;;;;;;;;1014859;28;19910;-73
2022/09/06 01:58:06;;;;;;;;;;;;;;;;;;1013574;28;20457;-74
2022/09/06 01:58:37;;;;;;;;;;;;;;;;;;1010547;28;20182;-74
2022/09/06 01:59:07;;;;;;;;;;;;;;;;;;1007626;29;20350;-74
2022/09/06 01:59:37;;;;;;;;;;;;;;;;;;1007254;29;19919;-74
2022/09/06 02:00:08;;;;;;;;;;;;;;;;;;1008335;28;20189;-74
2022/09/06 02:00:38;;;;;;;;;;;;;;;;;;1013067;28;20247;-74
2022/09/06 02:01:08;;;;;;;;;;;;;;;;;;1014361;28;19914;-74
2022/09/06 02:01:39;;;;;;;;;;;;;;;;;;1014596;28;20531;-74
2022/09/06 02:02:09;;;;;;;;;;;;;;;;;;1007257;29;20559;-73
2022/09/06 02:02:40;;;;;;;;;;;;;;;;;;1011843;28;20365;-74
2022/09/06 02:03:10;;;;;;;;;;;;;;;;;;1010535;29;20461;-74
2022/09/06 02:03:41;;;;;;;;;;;;;;;;;;1012074;28;20670;-74
2022/09/06 02:04:11;;;;;;;;;;;;;;;;;;1011902;28;19937;-74
2022/09/06 02:04:41;;;;;;;;;;;;;;;;;;1008158;29;19996;-74
2022/09/06 02:05:12;;;;;;;;;;;;;;;;;;1008428;29;20301;-74
2022/09/06 02:05:42;;;;;;;;;;;;;;;;;;1007380;29;20861;-74
2022/09/06 02:06:13;;;;;;;;;;;;;;;;;;1007395;29;19922;-74
2022/09/06 02:06:43;;;;;;;;;;;;;;;;;;1007300;29;21177;-74
2022/09/06 02:07:14;;;;;;;;;;;;;;;;;;1011017;29;19944;-74
2022/09/06 02:07:44;;;;;;;;;;;;;;;;;;1011484;28;20404;-74
2022/09/06 02:08:14;;;;;;;;;;;;;;;;;;1015515;28;20007;-74
2022/09/06 02:08:45;;;;;;;;;;;;;;;;;;1015614;28;19910;-74
2022/09/06 02:09:15;;;;;;;;;;;;;;;;;;1015158;28;19910;-74
2022/09/06 02:09:47;;;;;;;;;;;;;;;;;;1013713;28;19917;-74
2022/09/06 02:10:17;;;;;;;;;;;;;;;;;;1012386;28;20256;-74
2022/09/06 02:10:48;;;;;;;;;;;;;;;;;;1011136;29;19914;-74
2022/09/06 02:11:18;;;;;;;;;;;;;;;;;;1011029;28;19980;-74
2022/09/06 02:11:49;;;;;;;;;;;;;;;;;;1012308;28;20924;-74
2022/09/06 02:12:20;;;;;;;;;;;;;;;;;;1010179;29;19917;-74
2022/09/06 02:12:50;;;;;;;;;;;;;;;;;;1009573;29;19917;-74
2022/09/06 02:13:21;;;;;;;;;;;;;;;;;;1008657;29;20327;-74
2022/09/06 02:13:51;;;;;;;;;;;;;;;;;;1011001;29;20457;-74
2022/09/06 02:14:21;;;;;;;;;;;;;;;;;;1012829;29;19961;-74
2022/09/06 02:14:52;;;;;;;;;;;;;;;;;;1010979;28;20350;-74
2022/09/06 02:15:22;;;;;;;;;;;;;;;;;;1014346;28;20519;-74
2022/09/06 02:15:53;;;;;;;;;;;;;;;;;;1010016;29;20183;-74
2022/09/06 02:16:24;;;;;;;;;;;;;;;;;;1009797;28;19918;-74
2022/09/06 02:16:54;;;;;;;;;;;;;;;;;;1011263;29;20008;-74
2022/09/06 02:17:25;;;;;;;;;;;;;;;;;;1009068;29;20183;-74
2022/09/06 02:17:55;;;;;;;;;;;;;;;;;;1019772;23;20248;-74
2022/09/06 02:18:25;;;;;;;;;;;;;;;;;;1011295;29;20113;-74
2022/09/06 02:18:56;;;;;;;;;;;;;;;;;;1010477;29;19915;-74
2022/09/06 02:19:26;;;;;;;;;;;;;;;;;;1010785;29;20746;-74
2022/09/06 02:19:56;;;;;;;;;;;;;;;;;;1009638;29;20348;-74
2022/09/06 02:20:27;;;;;;;;;;;;;;;;;;1007096;29;20397;-74
2022/09/06 02:20:57;;;;;;;;;;;;;;;;;;1007649;29;20847;-74
2022/09/06 02:21:28;;;;;;;;;;;;;;;;;;1019554;23;19941;-74
2022/09/06 02:21:58;;;;;;;;;;;;;;;;;;1015520;28;19941;-74
2022/09/06 02:22:30;;;;;;;;;;;;;;;;;;1014086;28;20480;-74
2022/09/06 02:23:00;;;;;;;;;;;;;;;;;;1012921;29;19958;-74
2022/09/06 02:23:30;;;;;;;;;;;;;;;;;;1011041;29;20017;-74
2022/09/06 02:24:01;;;;;;;;;;;;;;;;;;1016758;28;19914;-74
2022/09/06 02:24:31;;;;;;;;;;;;;;;;;;1015074;28;20041;-74
2022/09/06 02:25:02;;;;;;;;;;;;;;;;;;1011928;28;20492;-74
2022/09/06 02:25:33;;;;;;;;;;;;;;;;;;1011205;29;19911;-74
2022/09/06 02:26:04;;;;;;;;;;;;;;;;;;1007354;28;19919;-74
2022/09/06 02:26:34;;;;;;;;;;;;;;;;;;1010123;28;20410;-74
2022/09/06 02:27:05;;;;;;;;;;;;;;;;;;1015114;28;20004;-74
2022/09/06 02:27:36;;;;;;;;;;;;;;;;;;1011279;29;20378;-74
2022/09/06 02:28:07;;;;;;;;;;;;;;;;;;1013829;28;19918;-74
2022/09/06 02:28:37;;;;;;;;;;;;;;;;;;1014279;28;20408;-74
2022/09/06 02:29:07;;;;;;;;;;;;;;;;;;1011655;29;20025;-74
2022/09/06 02:29:38;;;;;;;;;;;;;;;;;;1013170;29;19914;-74
2022/09/06 02:30:09;;;;;;;;;;;;;;;;;;1018431;28;20422;-74
2022/09/06 02:30:39;;;;;;;;;;;;;;;;;;1018135;28;19922;-74
2022/09/06 02:31:09;;;;;;;;;;;;;;;;;;1018707;28;19949;-75
2022/09/06 02:31:40;;;;;;;;;;;;;;;;;;1017982;28;20174;-74
2022/09/06 02:32:10;;;;;;;;;;;;;;;;;;1014156;29;20117;-74
2022/09/06 02:32:41;;;;;;;;;;;;;;;;;;1013963;29;20290;-74
2022/09/06 02:33:12;;;;;;;;;;;;;;;;;;1014587;29;19910;-74
2022/09/06 02:33:42;;;;;;;;;;;;;;;;;;1013926;29;19918;-74
2022/09/06 02:34:12;;;;;;;;;;;;;;;;;;1014650;29;20889;-74
2022/09/06 02:34:46;;;;;;;;;;;;;;;;;;1014916;29;20388;-74
2022/09/06 02:35:16;;;;;;;;;;;;;;;;;;1014862;29;19957;-73
2022/09/06 02:35:47;;;;;;;;;;;;;;;;;;1013211;28;19915;-74
2022/09/06 02:36:18;;;;;;;;;;;;;;;;;;1014414;29;19918;-73
2022/09/06 02:36:48;;;;;;;;;;;;;;;;;;1014033;28;19914;-75
2022/09/06 02:37:19;;;;;;;;;;;;;;;;;;1014162;28;20407;-74
2022/09/06 02:37:49;;;;;;;;;;;;;;;;;;1013690;29;20368;-75
2022/09/06 02:38:20;;;;;;;;;;;;;;;;;;1014385;29;19937;-75
2022/09/06 02:38:51;;;;;;;;;;;;;;;;;;1014202;29;20397;-74
2022/09/06 02:39:23;;;;;;;;;;;;;;;;;;1015186;28;19933;-74
2022/09/06 02:39:54;;;;;;;;;;;;;;;;;;1014802;28;19922;-75
2022/09/06 02:40:25;;;;;;;;;;;;;;;;;;1016939;28;19914;-74
2022/09/06 02:40:55;;;;;;;;;;;;;;;;;;1014971;28;20326;-74
2022/09/06 02:41:26;;;;;;;;;;;;;;;;;;1012644;28;20360;-74
2022/09/06 02:41:57;;;;;;;;;;;;;;;;;;1009896;28;20514;-74
2022/09/06 02:42:28;;;;;;;;;;;;;;;;;;1009401;28;20468;-74
2022/09/06 02:42:58;;;;;;;;;;;;;;;;;;1009210;29;20007;-75
2022/09/06 02:43:30;;;;;;;;;;;;;;;;;;1012885;29;20102;-74
2022/09/06 02:44:01;;;;;;;;;;;;;;;;;;1010999;28;20012;-75
2022/09/06 02:44:32;;;;;;;;;;;;;;;;;;1011164;29;19911;-77
2022/09/06 02:45:04;;;;;;;;;;;;;;;;;;1014163;28;20410;-75
2022/09/06 02:45:34;;;;;;;;;;;;;;;;;;1012123;28;20462;-74
2022/09/06 02:46:05;;;;;;;;;;;;;;;;;;1012817;28;19910;-77
2022/09/06 02:46:45;;;;;;;;;;;;;;;;;;1031478;23;20440;-75
2022/09/06 02:47:16;;;;;;;;;;;;;;;;;;1001467;29;20411;-76
2022/09/06 02:47:47;;;;;;;;;;;;;;;;;;1054720;23;19952;-76
2022/09/06 02:48:17;;;;;;;;;;;;;;;;;;1047446;23;19960;-75
2022/09/06 02:48:52;;;;;;;;;;;;;;;;;;1012615;28;19994;-75
2022/09/06 02:49:30;;;;;;;;;;;;;;;;;;1037959;23;19914;-76
2022/09/06 02:50:01;;;;;;;;;;;;;;;;;;1016529;23;19937;-75
2022/09/06 02:50:39;;;;;;;;;;;;;;;;;;1001533;29;20360;-76
2022/09/06 02:51:12;;;;;;;;;;;;;;;;;;1001811;29;19939;-76
2022/09/06 02:51:45;;;;;;;;;;;;;;;;;;1053149;23;19921;-76
2022/09/06 02:52:40;;;;;;;;;;;;;;;;;;1008399;28;19921;-76
2022/09/06 02:53:14;;;;;;;;;;;;;;;;;;1022347;23;19918;-76
2022/09/06 02:53:47;;;;;;;;;;;;;;;;;;1080994;23;19949;-76
2022/09/06 02:54:23;;;;;;;;;;;;;;;;;;1050098;23;20002;-77
2022/09/06 02:55:01;;;;;;;;;;;;;;;;;;1010474;28;20981;-77
2022/09/06 02:56:17;;;;;;;;;;;;;;;;;;916215;23;20664;-76
2022/09/06 02:57:31;;;;;;;;;;;;;;;;;;1006356;23;20678;-76
2022/09/06 02:58:02;;;;;;;;;;;;;;;;;;1012934;28;19938;-78
2022/09/06 02:58:38;;;;;;;;;;;;;;;;;;1048626;23;19917;-78
2022/09/06 02:59:18;;;;;;;;;;;;;;;;;;1009086;29;19952;-77
2022/09/06 02:59:52;;;;;;;;;;;;;;;;;;1012088;29;19961;-77
2022/09/06 03:00:55;;;;;;;;;;;;;;;;;;932158;23;20504;-77
2022/09/06 03:02:53;;;;;;;;;;;;;;;;;;1134833;23;20784;-76
2022/09/06 03:04:12;;;;;;;;;;;;;;;;;;1167689;23;19991;-76
2022/09/06 03:08:15;;;;;;;;;;;;;;;;;;752759;24;19947;-76
2022/09/06 03:08:52;;;;;;;;;;;;;;;;;;1007458;29;20349;-76
2022/09/06 03:09:46;;;;;;;;;;;;;;;;;;1008149;29;20496;-76
2022/09/06 03:10:17;;;;;;;;;;;;;;;;;;1006966;29;19915;-76
2022/09/06 03:10:48;;;;;;;;;;;;;;;;;;1007348;29;20520;-75
2022/09/06 03:11:22;;;;;;;;;;;;;;;;;;1007399;29;20851;-76
2022/09/06 03:11:53;;;;;;;;;;;;;;;;;;1007519;29;20245;-75
2022/09/06 03:12:26;;;;;;;;;;;;;;;;;;1008211;29;19915;-75
2022/09/06 03:13:00;;;;;;;;;;;;;;;;;;1002566;29;20018;-76
2022/09/06 03:13:34;;;;;;;;;;;;;;;;;;1002361;29;20037;-76
2022/09/06 03:14:06;;;;;;;;;;;;;;;;;;1003064;29;20187;-77
2022/09/06 03:15:20;;;;;;;;;;;;;;;;;;1078608;23;19954;-77
2022/09/06 03:15:54;;;;;;;;;;;;;;;;;;1004361;29;19918;-77
2022/09/06 03:16:26;;;;;;;;;;;;;;;;;;1008135;29;19946;-77
2022/09/06 03:16:58;;;;;;;;;;;;;;;;;;1004445;29;20119;-77
2022/09/06 03:18:11;;;;;;;;;;;;;;;;;;964757;27;20354;-76
2022/09/06 03:18:44;;;;;;;;;;;;;;;;;;1001732;29;20428;-76
2022/09/06 03:19:14;;;;;;;;;;;;;;;;;;1001056;29;19915;-76
2022/09/06 03:19:46;;;;;;;;;;;;;;;;;;1000385;29;20062;-76
2022/09/06 03:20:18;;;;;;;;;;;;;;;;;;1000704;29;19912;-77
2022/09/06 03:20:50;;;;;;;;;;;;;;;;;;999411;29;19912;-76
2022/09/06 03:21:21;;;;;;;;;;;;;;;;;;1003643;29;20357;-76
2022/09/06 03:21:53;;;;;;;;;;;;;;;;;;1001586;29;20047;-76
2022/09/06 03:22:25;;;;;;;;;;;;;;;;;;1006625;29;19919;-76
2022/09/06 03:22:56;;;;;;;;;;;;;;;;;;996836;29;20341;-76
2022/09/06 03:23:27;;;;;;;;;;;;;;;;;;998261;29;20026;-77
2022/09/06 03:23:59;;;;;;;;;;;;;;;;;;1003594;29;19910;-76
2022/09/06 03:24:29;;;;;;;;;;;;;;;;;;1003818;29;19915;-77
2022/09/06 03:25:00;;;;;;;;;;;;;;;;;;1000174;29;19919;-76
2022/09/06 03:25:33;;;;;;;;;;;;;;;;;;1000086;29;19911;-76
2022/09/06 03:26:04;;;;;;;;;;;;;;;;;;1002961;29;19912;-77
2022/09/06 03:27:09;;;;;;;;;;;;;;;;;;981984;29;19927;-77
2022/09/06 03:27:40;;;;;;;;;;;;;;;;;;1005866;29;19914;-76
2022/09/06 03:28:14;;;;;;;;;;;;;;;;;;1005360;29;20102;-77
2022/09/06 03:28:45;;;;;;;;;;;;;;;;;;1024292;23;20117;-77
2022/09/06 03:29:16;;;;;;;;;;;;;;;;;;1009513;29;19910;-77
2022/09/06 03:29:48;;;;;;;;;;;;;;;;;;1007240;29;20424;-76
2022/09/06 03:30:18;;;;;;;;;;;;;;;;;;1004720;29;19919;-76
2022/09/06 03:32:04;;;;;;;;;;;;;;;;;;973610;23;20235;-77
2022/09/06 03:32:41;;;;;;;;;;;;;;;;;;1018529;23;20478;-76
2022/09/06 03:33:11;;;;;;;;;;;;;;;;;;1003716;29;20680;-76
2022/09/06 03:33:42;;;;;;;;;;;;;;;;;;1005215;29;19919;-77
2022/09/06 03:34:13;;;;;;;;;;;;;;;;;;1003682;29;20480;-76
2022/09/06 03:34:54;;;;;;;;;;;;;;;;;;557372;29;13049740;-76
2022/09/06 03:35:24;;;;;;;;;;;;;;;;;;994184;29;20153;-75
2022/09/06 03:35:56;;;;;;;;;;;;;;;;;;997567;29;19919;-76
2022/09/06 03:36:28;;;;;;;;;;;;;;;;;;1035375;23;19928;-77
2022/09/06 03:36:59;;;;;;;;;;;;;;;;;;1027943;23;19925;-76
2022/09/06 03:37:30;;;;;;;;;;;;;;;;;;1003974;29;19923;-76
2022/09/06 03:38:00;;;;;;;;;;;;;;;;;;999394;29;19987;-76
2022/09/06 03:38:34;;;;;;;;;;;;;;;;;;1005078;29;19976;-75
2022/09/06 03:39:05;;;;;;;;;;;;;;;;;;1001337;29;19915;-75
2022/09/06 03:39:40;;;;;;;;;;;;;;;;;;1003964;29;20250;-78
2022/09/06 03:42:12;;;;;;;;;;;;;;;;;;837715;23;20847;-79
2022/09/06 03:42:49;;;;;;;;;;;;;;;;;;1026119;23;20054;-78
2022/09/06 03:43:39;;;;;;;;;;;;;;;;;;1010196;26;20444;-78
2022/09/06 03:45:30;;;;;;;;;;;;;;;;;;1010338;23;19962;-79
2022/09/06 03:47:01;;;;;;;;;;;;;;;;;;996608;26;20057;-76
2022/09/06 03:47:37;;;;;;;;;;;;;;;;;;1013241;28;20559;-77